Time;durP1;ratioP1;P1;durP2;ratioP2;P2;SDS_P1;SDS_P2;PMS_P1;PMS_P2;Temp;Humidity;BMP_temperature;BMP_pressure;BME280_temperature;BME280_humidity;BME280_pressure;Samples;Min_cycle;Max_cycle;Signal;HPM_P1;HPM_P2
2022/11/05 00:10:37;;;;;;;;;13.00;11.00;;;;;10.02;70.06;101253.75;5056117;27;45533;-59
2022/11/05 00:18:34;;;;;;;;;16.00;12.00;;;;;9.98;70.55;101257.50;5075742;28;45769;-58
2022/11/05 00:21:00;;;;;;;;;16.00;11.00;;;;;9.94;70.18;101249.72;5075849;28;45458;-59
2022/11/05 00:26:10;;;;;;;;;11.50;11.50;;;;;9.97;70.58;101265.53;5056210;28;45486;-58
2022/11/05 00:28:36;;;;;;;;;15.25;12.00;;;;;9.96;71.06;101264.66;5063059;27;46556;-57
2022/11/05 00:31:08;;;;;;;;;10.50;10.25;;;;;9.95;70.55;101267.38;5062525;27;45537;-58
2022/11/05 00:33:34;;;;;;;;;15.50;11.75;;;;;9.91;70.89;101261.34;5055880;28;45261;-57
2022/11/05 00:36:01;;;;;;;;;12.25;11.75;;;;;9.93;70.60;101262.16;5056404;28;45387;-57
2022/11/05 00:38:28;;;;;;;;;5.50;4.00;;;;;9.93;70.40;101255.97;5064364;27;46070;-60
2022/11/05 00:40:54;;;;;;;;;13.25;13.25;;;;;9.96;71.07;101264.66;5040753;28;45425;-59
2022/11/05 00:46:03;;;;;;;;;14.75;11.00;;;;;9.98;70.55;101275.22;5073606;28;45445;-59
2022/11/05 00:51:12;;;;;;;;;13.75;12.50;;;;;9.99;69.96;101269.84;5058950;28;45427;-58
2022/11/05 00:53:38;;;;;;;;;11.25;7.75;;;;;10.07;70.19;101271.31;5059331;28;45374;-58
2022/11/05 00:56:03;;;;;;;;;13.75;11.25;;;;;10.05;70.25;101269.59;5059032;28;45593;-58
2022/11/05 00:58:29;;;;;;;;;19.00;11.50;;;;;10.10;70.06;101282.69;5082115;27;48691;-57
2022/11/05 01:00:56;;;;;;;;;10.25;10.00;;;;;10.11;69.74;101272.91;5077983;27;45311;-58
2022/11/05 01:03:24;;;;;;;;;15.50;11.50;;;;;10.11;69.29;101280.88;5067496;27;45505;-57
2022/11/05 01:05:53;;;;;;;;;12.00;10.00;;;;;10.08;70.18;101279.22;5043742;27;45343;-58
2022/11/05 01:08:20;;;;;;;;;10.50;10.25;;;;;10.04;69.50;101267.88;5060392;28;46440;-58
2022/11/05 01:10:48;;;;;;;;;11.00;11.00;;;;;10.02;69.32;101267.03;5075408;28;45414;-57
2022/11/05 01:13:17;;;;;;;;;11.00;11.00;;;;;9.99;69.50;101272.50;5078734;28;45371;-59
2022/11/05 01:15:43;;;;;;;;;10.00;8.75;;;;;9.94;69.71;101261.22;5049808;28;45711;-58
2022/11/05 01:18:09;;;;;;;;;11.50;8.00;;;;;9.92;70.51;101268.41;5073185;27;45504;-58
2022/11/05 01:20:34;;;;;;;;;12.00;8.50;;;;;9.92;69.90;101271.06;5078888;28;45409;-58
2022/11/05 01:23:00;;;;;;;;;6.00;6.00;;;;;9.88;70.69;101265.91;5078931;28;45263;-58
2022/11/05 01:25:25;;;;;;;;;11.25;11.25;;;;;9.87;70.40;101275.69;5059912;28;45654;-57
2022/11/05 01:27:50;;;;;;;;;8.50;8.00;;;;;9.86;69.63;101263.31;5075822;27;45987;-57
2022/11/05 01:30:16;;;;;;;;;11.25;8.00;;;;;9.87;70.34;101259.72;5058345;28;45344;-57
2022/11/05 01:32:41;;;;;;;;;11.00;11.00;;;;;9.85;70.74;101256.28;5059847;28;45533;-59
2022/11/05 01:35:09;;;;;;;;;11.25;11.00;;;;;9.79;70.50;101259.22;5062785;27;47056;-58
2022/11/05 01:37:35;;;;;;;;;14.00;11.75;;;;;9.76;70.43;101267.28;5058094;28;45381;-58
2022/11/05 01:40:01;;;;;;;;;13.50;9.25;;;;;9.77;70.39;101271.69;5058272;28;45450;-59
2022/11/05 01:42:27;;;;;;;;;11.50;9.25;;;;;9.72;70.52;101263.91;5065994;27;45524;-60
2022/11/05 01:45:02;;;;;;;;;8.25;7.50;;;;;9.77;70.63;101269.03;5060358;28;45620;-59
2022/11/05 01:47:52;;;;;;;;;7.75;7.75;;;;;9.77;70.84;101273.50;5047297;27;47353;-59
2022/11/05 01:50:32;;;;;;;;;7.00;7.00;;;;;9.75;70.67;101281.50;5059047;28;45405;-58
2022/11/05 01:53:19;;;;;;;;;9.75;7.50;;;;;9.76;70.55;101277.91;5058459;28;45347;-56
2022/11/05 01:55:51;;;;;;;;;11.75;9.50;;;;;9.74;69.74;101275.31;5086941;27;45176;-58
2022/11/05 01:58:21;;;;;;;;;11.00;10.00;;;;;9.74;69.76;101279.78;5064511;27;46198;-58
2022/11/05 02:00:47;;;;;;;;;10.00;10.00;;;;;9.72;70.89;101277.19;5060625;28;45266;-58
2022/11/05 02:03:15;;;;;;;;;5.50;5.50;;;;;9.71;70.52;101275.47;5079416;27;45236;-57
2022/11/05 02:05:41;;;;;;;;;10.00;8.25;;;;;9.66;70.32;101271.28;5060112;27;45458;-58
2022/11/05 02:08:15;;;;;;;;;8.00;8.00;;;;;9.67;70.53;101275.66;5058448;27;45522;-58
2022/11/05 02:10:44;;;;;;;;;6.75;6.00;;;;;9.67;70.33;101270.34;5058731;27;45445;-60
2022/11/05 02:13:09;;;;;;;;;11.50;7.50;;;;;9.70;70.36;101279.03;5060103;27;45484;-58
2022/11/05 02:16:00;;;;;;;;;10.25;9.00;;;;;9.65;70.82;101274.88;5078901;27;45216;-59
2022/11/05 02:18:55;;;;;;;;;11.00;8.50;;;;;9.69;71.07;101271.16;5060204;28;47082;-59
2022/11/05 02:21:27;;;;;;;;;8.25;8.25;;;;;9.69;70.93;101271.16;5059880;28;45490;-58
2022/11/05 02:24:34;;;;;;;;;12.50;11.75;;;;;9.69;70.91;101276.47;5067706;27;45513;-58
2022/11/05 02:27:27;;;;;;;;;11.50;11.50;;;;;9.67;70.77;101267.69;5061932;28;45255;-58
2022/11/05 02:30:11;;;;;;;;;9.75;7.25;;;;;9.63;71.05;101266.94;5068459;27;45381;-58
2022/11/05 02:32:51;;;;;;;;;11.00;10.25;;;;;9.65;70.15;101274.88;5065333;27;45254;-59
2022/11/05 02:35:43;;;;;;;;;10.00;7.50;;;;;9.65;70.71;101280.19;5078420;27;45444;-58
2022/11/05 02:38:15;;;;;;;;;8.25;8.25;;;;;9.65;71.30;101275.72;5076772;28;45200;-61
2022/11/05 02:41:00;;;;;;;;;10.25;7.00;;;;;9.66;70.80;101277.47;5067718;28;47027;-57
2022/11/05 02:43:35;;;;;;;;;10.00;10.00;;;;;9.66;70.74;101282.78;5058021;28;45273;-59
2022/11/05 02:46:07;;;;;;;;;12.00;10.00;;;;;9.67;70.56;101286.28;5057475;28;45414;-58
2022/11/05 02:48:54;;;;;;;;;5.25;5.25;;;;;9.64;70.60;101275.78;5057464;28;45465;-57
2022/11/05 02:51:40;;;;;;;;;9.00;7.00;;;;;9.62;70.93;101280.28;5055973;27;45433;-58
2022/11/05 02:54:12;;;;;;;;;6.75;6.75;;;;;9.61;71.27;101278.56;5056927;28;45385;-58
2022/11/05 02:56:45;;;;;;;;;8.00;7.00;;;;;9.57;70.91;101277.81;5057468;28;45554;-58
2022/11/05 02:59:11;;;;;;;;;10.75;10.00;;;;;9.57;70.52;101276.97;5057285;28;45433;-59
2022/11/05 03:01:38;;;;;;;;;6.75;3.00;;;;;9.56;71.69;101275.22;5067251;27;46302;-58
2022/11/05 03:04:07;;;;;;;;;7.50;7.00;;;;;9.56;71.12;101275.22;5086106;27;45412;-58
2022/11/05 03:06:45;;;;;;;;;7.00;6.25;;;;;9.58;71.30;101268.06;5058221;27;46879;-62
2022/11/05 03:09:25;;;;;;;;;7.00;7.00;;;;;9.58;71.97;101268.06;5092678;27;45597;-58
2022/11/05 03:11:56;;;;;;;;;4.50;4.50;;;;;9.57;71.64;101267.19;5055944;28;47351;-58
2022/11/05 03:14:34;;;;;;;;;10.75;8.25;;;;;9.58;71.58;101265.41;5056641;27;45392;-57
2022/11/05 03:17:11;;;;;;;;;10.50;7.75;;;;;9.56;71.65;101264.63;5064427;28;45298;-58
2022/11/05 03:20:14;;;;;;;;;9.50;6.00;;;;;9.56;72.40;101265.47;5077203;27;45265;-58
2022/11/05 03:23:07;;;;;;;;;7.75;6.00;;;;;9.54;71.90;101255.84;5054937;28;45449;-57
2022/11/05 03:25:37;;;;;;;;;10.00;7.00;;;;;9.58;72.54;101268.06;5040974;28;45429;-57
2022/11/05 03:28:06;;;;;;;;;7.50;6.00;;;;;9.60;71.91;101266.19;5056874;28;45248;-60
2022/11/05 03:30:36;;;;;;;;;6.75;6.75;;;;;9.56;71.89;101254.00;5077566;27;45573;-58
2022/11/05 03:33:08;;;;;;;;;6.25;6.25;;;;;9.54;71.82;101255.84;5057123;28;45394;-58
2022/11/05 03:35:39;;;;;;;;;7.75;6.25;;;;;9.55;73.12;101266.41;5057315;28;45416;-59
2022/11/05 03:38:11;;;;;;;;;6.00;6.00;;;;;9.53;72.13;101264.75;5056431;28;45822;-58
2022/11/05 03:40:39;;;;;;;;;11.00;7.00;;;;;9.55;72.49;101260.22;5081211;27;45265;-58
2022/11/05 03:43:07;;;;;;;;;6.25;5.00;;;;;9.58;72.54;101262.75;5075951;28;45537;-59
2022/11/05 03:45:40;;;;;;;;;8.50;6.00;;;;;9.59;72.68;101252.06;5076346;28;45516;-58
2022/11/05 03:48:09;;;;;;;;;9.25;6.50;;;;;9.60;72.24;101258.25;5071816;27;45502;-58
2022/11/05 03:50:44;;;;;;;;;6.00;6.00;;;;;9.61;72.40;101258.16;5056740;27;45382;-58
2022/11/05 03:53:17;;;;;;;;;5.75;5.75;;;;;9.62;72.08;101249.28;5055622;27;45398;-57
2022/11/05 03:55:53;;;;;;;;;5.75;5.75;;;;;9.57;72.13;101235.34;5056290;28;45474;-57
2022/11/05 03:58:21;;;;;;;;;3.50;3.50;;;;;9.68;72.38;101246.38;5056750;28;45465;-58
2022/11/05 04:00:48;;;;;;;;;6.00;5.00;;;;;9.70;71.36;101262.25;5057044;27;45516;-58
2022/11/05 04:03:13;;;;;;;;;5.00;5.00;;;;;9.71;71.94;101243.59;5071504;28;47067;-58
2022/11/05 04:05:39;;;;;;;;;3.00;3.00;;;;;9.77;72.37;101247.78;5056659;28;45231;-59
2022/11/05 04:13:33;;;;;;;;;9.25;8.00;;;;;9.83;72.10;101258.16;5078441;27;45799;-58
2022/11/05 04:18:42;;;;;;;;;7.50;7.50;;;;;9.85;71.84;101260.75;5055885;28;45324;-59
2022/11/05 04:26:48;;;;;;;;;11.00;5.25;;;;;9.77;71.91;101250.44;5050655;28;45198;-58
2022/11/05 04:31:58;;;;;;;;;8.00;8.00;;;;;9.88;71.52;101282.72;5076963;27;45485;-58
2022/11/05 04:34:23;;;;;;;;;14.50;8.25;;;;;9.81;71.72;101278.59;5080104;28;45319;-59
2022/11/05 04:36:50;;;;;;;;;8.00;7.00;;;;;9.85;71.50;101288.16;5062129;28;45259;-58
2022/11/05 04:39:19;;;;;;;;;8.25;6.75;;;;;9.83;72.18;101284.72;5072932;28;45496;-58
2022/11/05 04:41:48;;;;;;;;;11.00;8.25;;;;;9.80;72.04;101279.53;5056275;28;45673;-58
2022/11/05 04:44:15;;;;;;;;;9.50;7.00;;;;;9.84;72.38;101289.09;5042088;27;46249;-57
2022/11/05 04:46:40;;;;;;;;;8.75;7.00;;;;;9.85;72.41;101277.53;5077795;27;45301;-57
2022/11/05 04:49:06;;;;;;;;;13.75;6.25;;;;;9.89;72.22;101275.59;5074340;27;45454;-58
2022/11/05 04:51:32;;;;;;;;;6.75;5.50;;;;;9.88;72.27;101276.53;5079265;28;45567;-57
2022/11/05 04:53:57;;;;;;;;;7.50;6.00;;;;;9.79;71.35;101255.69;5078892;28;45399;-57
2022/11/05 04:56:24;;;;;;;;;5.00;5.00;;;;;9.88;72.23;101277.41;5076670;28;45431;-60
2022/11/05 04:58:50;;;;;;;;;6.00;5.00;;;;;9.88;71.79;101279.19;5074431;27;45395;-58
2022/11/05 05:01:18;;;;;;;;;5.00;5.00;;;;;9.89;72.27;101278.25;5080384;27;45493;-59
2022/11/05 05:03:48;;;;;;;;;5.00;5.00;;;;;9.87;71.63;101275.69;5069895;28;45430;-57
2022/11/05 05:06:14;;;;;;;;;6.25;4.50;;;;;9.90;71.49;101286.19;5079101;28;45464;-57
2022/11/05 05:08:40;;;;;;;;;5.00;5.00;;;;;9.89;72.37;101281.78;5078915;28;45446;-57
2022/11/05 05:11:09;;;;;;;;;5.00;5.00;;;;;9.91;72.17;101297.69;5079321;27;45660;-57
2022/11/05 05:13:35;;;;;;;;;6.00;3.50;;;;;9.88;72.08;101297.78;5060582;28;45437;-58
2022/11/05 05:16:06;;;;;;;;;9.00;5.50;;;;;9.86;72.53;101304.97;5060289;28;45491;-57
2022/11/05 05:18:31;;;;;;;;;8.75;5.75;;;;;9.87;71.91;101307.56;5077033;28;45714;-58
2022/11/05 05:23:42;;;;;;;;;3.00;3.00;;;;;9.90;72.07;101306.59;5091260;27;45709;-57
2022/11/05 05:26:07;;;;;;;;;6.00;3.00;;;;;9.91;72.41;101303.00;5079404;27;45766;-57
2022/11/05 05:28:33;;;;;;;;;5.00;4.50;;;;;9.88;71.21;101295.13;5079057;28;45606;-58
2022/11/05 05:30:59;;;;;;;;;3.00;3.00;;;;;9.91;71.48;101293.25;5047659;28;45412;-57
2022/11/05 05:33:26;;;;;;;;;3.00;3.00;;;;;9.79;70.95;101277.81;5058545;28;45400;-58
2022/11/05 05:35:51;;;;;;;;;7.50;5.00;;;;;9.87;72.09;101291.63;5057528;28;45494;-58
2022/11/05 05:38:16;;;;;;;;;3.00;3.00;;;;;9.91;72.29;101301.22;5058602;28;45457;-57
2022/11/05 05:40:42;;;;;;;;;3.25;2.50;;;;;9.91;71.39;101303.88;5050137;28;45322;-60
2022/11/05 05:43:07;;;;;;;;;4.50;4.50;;;;;9.91;71.64;101303.00;5077236;28;46535;-58
2022/11/05 05:45:34;;;;;;;;;6.25;6.00;;;;;9.91;71.37;101287.06;5077840;27;45370;-59
2022/11/05 05:47:59;;;;;;;;;2.75;2.25;;;;;9.94;71.92;101301.06;5069692;28;45303;-58
2022/11/05 05:50:25;;;;;;;;;8.25;6.50;;;;;9.90;71.56;101302.13;5066954;27;45367;-57
2022/11/05 05:52:50;;;;;;;;;6.00;3.50;;;;;9.92;71.91;101316.22;5057999;28;45842;-58
2022/11/05 05:55:16;;;;;;;;;5.00;5.00;;;;;9.91;71.69;101303.88;5039710;28;45361;-58
2022/11/05 05:57:41;;;;;;;;;4.50;4.50;;;;;9.90;72.34;101302.13;5075803;28;45247;-57
2022/11/05 06:00:08;;;;;;;;;5.50;5.00;;;;;9.91;72.06;101297.69;5077564;27;45259;-58
2022/11/05 06:02:33;;;;;;;;;7.75;6.75;;;;;9.83;71.43;101283.84;5058007;28;45388;-57
2022/11/05 06:04:58;;;;;;;;;2.00;2.00;;;;;9.90;72.27;101310.09;5058347;27;45497;-58
2022/11/05 06:07:24;;;;;;;;;6.00;3.00;;;;;9.86;72.09;101308.50;5040178;28;45702;-57
2022/11/05 06:09:49;;;;;;;;;6.50;3.00;;;;;9.87;72.15;101307.56;5057744;27;45285;-57
2022/11/05 06:12:14;;;;;;;;;2.25;2.25;;;;;9.87;71.92;101310.22;5076683;28;45241;-58
2022/11/05 06:14:40;;;;;;;;;6.00;5.00;;;;;9.88;72.70;101314.59;5077981;28;45383;-58
2022/11/05 06:17:06;;;;;;;;;7.00;7.00;;;;;9.84;71.73;101302.38;5059387;27;45272;-57
2022/11/05 06:19:32;;;;;;;;;5.50;5.50;;;;;9.84;72.01;101307.69;5060390;27;45367;-59
2022/11/05 06:21:57;;;;;;;;;6.25;5.75;;;;;9.79;72.16;101314.13;5058503;28;45700;-59
2022/11/05 06:24:22;;;;;;;;;6.75;5.00;;;;;9.79;72.73;101314.13;5039747;28;45716;-58
2022/11/05 06:26:48;;;;;;;;;2.25;2.00;;;;;9.77;72.43;101314.22;5057942;28;45604;-59
2022/11/05 06:29:13;;;;;;;;;6.00;6.00;;;;;9.83;72.21;101321.91;5064983;27;45530;-59
2022/11/05 06:31:39;;;;;;;;;3.00;2.00;;;;;9.83;72.56;101321.91;5059817;27;46199;-58
2022/11/05 06:34:04;;;;;;;;;6.00;6.00;;;;;9.82;71.54;101330.81;5074085;28;45360;-57
2022/11/05 06:36:30;;;;;;;;;6.00;3.00;;;;;9.86;72.49;101334.19;5078069;28;45332;-58
2022/11/05 06:38:55;;;;;;;;;5.00;5.00;;;;;9.87;71.34;101326.16;5073501;27;45415;-57
2022/11/05 06:41:21;;;;;;;;;5.00;5.00;;;;;9.87;72.30;101322.63;5058658;28;48082;-59
2022/11/05 06:43:46;;;;;;;;;5.00;3.00;;;;;9.85;71.82;101320.03;5066250;28;45274;-60
2022/11/05 06:46:12;;;;;;;;;6.25;5.00;;;;;9.84;71.91;101313.00;5057544;27;45378;-58
2022/11/05 06:48:37;;;;;;;;;10.25;6.00;;;;;9.87;71.92;101323.50;5072914;28;45323;-58
2022/11/05 06:51:04;;;;;;;;;11.00;6.00;;;;;9.90;72.18;101336.69;5057069;27;45238;-59
2022/11/05 06:53:29;;;;;;;;;6.00;6.00;;;;;9.92;72.13;101341.94;5041130;28;45289;-57
2022/11/05 06:55:54;;;;;;;;;3.00;3.00;;;;;9.91;72.37;101335.75;5060853;28;45351;-58
2022/11/05 06:58:20;;;;;;;;;3.50;2.00;;;;;9.95;71.40;101352.41;5059395;28;45239;-58
2022/11/05 07:00:45;;;;;;;;;3.00;3.00;;;;;9.98;71.68;101342.53;5091719;27;45530;-57
2022/11/05 07:03:11;;;;;;;;;7.00;3.50;;;;;10.02;71.91;101341.47;5078905;27;45399;-59
2022/11/05 07:05:48;;;;;;;;;5.50;3.00;;;;;10.05;71.54;101335.19;5079432;28;45460;-56
2022/11/05 07:08:14;;;;;;;;;5.75;4.50;;;;;9.98;71.61;101331.88;5078241;28;45484;-57
2022/11/05 07:10:39;;;;;;;;;7.00;3.00;;;;;10.04;70.95;101358.22;5077715;28;45507;-59
2022/11/05 07:13:05;;;;;;;;;3.00;3.00;;;;;10.08;71.54;101352.78;5069690;27;45465;-58
2022/11/05 07:15:30;;;;;;;;;4.00;4.00;;;;;10.11;71.09;101349.97;5057271;27;45429;-57
2022/11/05 07:17:57;;;;;;;;;1.00;1.00;;;;;10.12;70.83;101341.06;5057023;28;45344;-58
2022/11/05 07:20:23;;;;;;;;;11.50;6.00;;;;;10.17;71.21;101353.25;5075308;27;46279;-63
2022/11/05 07:22:48;;;;;;;;;6.75;5.75;;;;;10.18;70.92;101354.13;5057625;27;45280;-58
2022/11/05 07:25:13;;;;;;;;;5.75;5.75;;;;;10.20;70.95;101352.25;5072529;28;45315;-59
2022/11/05 07:27:39;;;;;;;;;6.00;3.00;;;;;10.21;70.84;101344.25;5038775;27;45205;-59
2022/11/05 07:30:08;;;;;;;;;5.25;3.25;;;;;10.25;70.40;101339.66;5062621;28;45430;-58
2022/11/05 07:32:40;;;;;;;;;5.75;5.75;;;;;10.22;70.75;101324.72;5073839;27;45357;-58
2022/11/05 07:35:07;;;;;;;;;2.00;2.00;;;;;10.29;70.85;101347.47;5066785;28;45541;-58
2022/11/05 07:37:40;;;;;;;;;5.75;3.00;;;;;10.35;70.16;101356.94;5057034;28;45648;-55
2022/11/05 07:40:06;;;;;;;;;3.25;3.25;;;;;10.41;70.65;101355.81;5038313;28;46401;-57
2022/11/05 07:42:33;;;;;;;;;6.50;3.00;;;;;10.47;70.30;101360.88;5065688;27;45477;-56
2022/11/05 07:44:59;;;;;;;;;5.25;3.00;;;;;10.47;70.16;101355.56;5079238;27;45965;-57
2022/11/05 07:47:24;;;;;;;;;4.00;3.75;;;;;10.49;69.22;101367.84;5070863;28;45990;-57
2022/11/05 07:49:49;;;;;;;;;3.75;3.00;;;;;10.47;69.88;101360.88;5069984;28;46064;-57
2022/11/05 07:52:15;;;;;;;;;5.00;4.00;;;;;10.46;69.74;101370.66;5056211;28;45388;-59
2022/11/05 07:54:40;;;;;;;;;3.00;3.00;;;;;10.49;69.76;101367.84;5037980;28;45448;-58
2022/11/05 07:57:05;;;;;;;;;2.25;2.25;;;;;10.49;69.84;101373.19;5068904;28;45471;-59
2022/11/05 07:59:31;;;;;;;;;6.50;4.75;;;;;10.54;69.54;101357.88;5076612;28;45513;-58
2022/11/05 08:01:56;;;;;;;;;5.25;5.25;;;;;10.61;69.62;101359.34;5058174;27;45251;-57
2022/11/05 08:04:22;;;;;;;;;4.75;4.75;;;;;10.66;69.57;101355.59;5058539;28;45378;-58
2022/11/05 08:06:47;;;;;;;;;5.00;5.00;;;;;10.72;69.43;101366.00;5076844;28;45346;-59
2022/11/05 08:09:13;;;;;;;;;3.00;3.00;;;;;10.77;69.30;101366.66;5076317;28;46305;-58
2022/11/05 08:11:38;;;;;;;;;4.75;3.50;;;;;10.79;69.13;101359.44;5075037;27;45331;-57
2022/11/05 08:14:04;;;;;;;;;7.00;5.75;;;;;10.81;68.17;101373.56;5076260;28;45374;-57
2022/11/05 08:16:29;;;;;;;;;8.25;5.00;;;;;10.86;69.11;101363.59;5076194;27;45219;-57
2022/11/05 08:18:54;;;;;;;;;2.00;2.00;;;;;10.92;68.52;101368.63;5076050;28;45326;-58
2022/11/05 08:21:20;;;;;;;;;5.50;5.50;;;;;10.96;68.25;101367.56;5061918;27;45416;-60
2022/11/05 08:23:45;;;;;;;;;7.00;5.75;;;;;11.06;68.42;101368.84;5067415;28;45228;-55
2022/11/05 08:26:11;;;;;;;;;7.50;5.25;;;;;11.09;67.78;101366.06;5076235;28;45374;-60
2022/11/05 08:28:36;;;;;;;;;5.75;4.00;;;;;11.12;67.71;101371.25;5059550;28;46207;-58
2022/11/05 08:31:02;;;;;;;;;8.75;6.00;;;;;11.10;68.14;101362.47;5071138;28;45537;-57
2022/11/05 08:33:30;;;;;;;;;7.00;6.00;;;;;11.14;68.03;101373.84;5076424;28;45251;-59
2022/11/05 08:35:55;;;;;;;;;7.00;4.33;;;;;11.12;67.75;101365.91;5075918;27;45565;-58
2022/11/05 08:38:21;;;;;;;;;7.00;5.67;;;;;11.19;67.88;101367.34;5043038;28;46657;-56
2022/11/05 08:40:55;;;;;;;;;4.25;3.00;;;;;11.21;67.86;101370.84;5057148;28;45255;-58
2022/11/05 08:43:20;;;;;;;;;3.00;3.00;;;;;11.20;67.90;101369.09;5079211;27;45436;-58
2022/11/05 08:45:46;;;;;;;;;7.00;3.00;;;;;11.18;67.76;101376.28;5056593;28;45330;-57
2022/11/05 08:48:14;;;;;;;;;3.50;3.50;;;;;11.17;67.58;101381.66;5055584;28;46003;-58
2022/11/05 08:50:40;;;;;;;;;5.75;3.00;;;;;11.25;67.64;101386.66;5057803;28;45340;-58
2022/11/05 08:53:10;;;;;;;;;3.00;3.00;;;;;11.30;67.03;101384.63;5042117;27;46513;-59
2022/11/05 08:55:37;;;;;;;;;7.00;3.00;;;;;11.28;66.86;101376.72;5081732;27;46575;-59
2022/11/05 08:58:09;;;;;;;;;7.00;4.50;;;;;11.42;66.66;101400.91;5076165;27;47031;-58
2022/11/05 09:00:36;;;;;;;;;4.00;4.00;;;;;11.49;66.33;101409.50;5075747;28;45391;-61
2022/11/05 09:03:04;;;;;;;;;3.00;3.00;;;;;11.49;66.14;101398.84;5063560;27;45384;-59
2022/11/05 09:05:36;;;;;;;;;3.00;3.00;;;;;11.61;65.57;101406.25;5063957;27;45248;-59
2022/11/05 09:08:02;;;;;;;;;3.00;3.00;;;;;11.63;65.74;101387.53;5078546;27;46033;-57
2022/11/05 09:10:28;;;;;;;;;4.67;4.00;;;;;11.70;65.39;101383.63;5072947;27;45547;-57
2022/11/05 09:12:53;;;;;;;;;6.67;4.00;;;;;11.71;65.50;101383.53;5045822;28;47054;-58
2022/11/05 09:15:19;;;;;;;;;2.00;1.67;;;;;11.81;65.56;101384.00;5072008;27;46420;-58
2022/11/05 09:17:44;;;;;;;;;5.33;3.67;;;;;11.88;65.69;101392.56;5066422;27;45938;-59
2022/11/05 09:20:10;;;;;;;;;4.00;4.00;;;;;11.91;65.32;101381.75;5067971;27;45379;-57
2022/11/05 09:22:36;;;;;;;;;3.00;2.67;;;;;11.97;65.34;101376.09;5069470;27;45226;-56
2022/11/05 09:25:02;;;;;;;;;3.33;2.00;;;;;12.04;65.12;101373.06;5078537;28;45645;-56
2022/11/05 09:27:30;;;;;;;;;4.00;3.00;;;;;12.12;64.48;101370.03;5073981;27;45535;-58
2022/11/05 09:29:56;;;;;;;;;2.33;2.33;;;;;12.14;64.10;101369.97;5057635;27;45788;-61
2022/11/05 09:32:22;;;;;;;;;5.67;5.67;;;;;12.20;64.35;101372.31;5077165;27;45580;-57
2022/11/05 09:34:48;;;;;;;;;5.00;2.67;;;;;12.27;64.09;101377.25;5078328;27;45537;-58
2022/11/05 09:37:14;;;;;;;;;2.33;2.33;;;;;12.41;63.56;101379.22;5060135;27;46309;-57
2022/11/05 09:39:39;;;;;;;;;6.33;2.33;;;;;12.43;62.87;101379.16;5074485;28;45891;-57
2022/11/05 09:42:14;;;;;;;;;3.00;3.00;;;;;12.51;63.00;101376.97;5059527;27;45224;-58
2022/11/05 09:44:48;;;;;;;;;2.00;2.00;;;;;12.62;63.01;101374.56;5051186;28;45467;-57
2022/11/05 09:47:20;;;;;;;;;2.00;2.00;;;;;12.68;63.29;101372.47;5059399;27;45313;-58
2022/11/05 09:49:50;;;;;;;;;3.67;2.00;;;;;12.73;62.73;101374.88;5058032;27;45486;-57
2022/11/05 09:52:32;;;;;;;;;6.67;3.00;;;;;12.74;62.52;101373.94;5057755;28;45301;-58
2022/11/05 09:54:57;;;;;;;;;2.00;2.00;;;;;12.86;62.72;101375.94;5058421;28;45178;-57
2022/11/05 09:57:25;;;;;;;;;2.00;2.00;;;;;12.91;62.29;101371.25;5088565;27;46193;-57
2022/11/05 09:59:55;;;;;;;;;3.33;2.00;;;;;12.99;62.28;101374.34;5069923;27;45542;-59
2022/11/05 10:02:29;;;;;;;;;2.00;2.00;;;;;13.09;61.53;101374.72;5046569;28;45363;-60
2022/11/05 10:05:01;;;;;;;;;5.67;3.00;;;;;13.13;61.94;101370.94;5079917;27;45420;-60
2022/11/05 10:07:30;;;;;;;;;2.00;2.00;;;;;13.17;61.48;101374.31;5081230;27;46276;-59
2022/11/05 10:10:03;;;;;;;;;2.00;2.00;;;;;13.14;61.74;101366.47;5069817;27;45655;-59
2022/11/05 10:12:53;;;;;;;;;3.00;2.00;;;;;13.18;61.76;101368.03;5062855;27;45486;-59
2022/11/05 10:15:27;;;;;;;;;1.00;1.00;;;;;13.21;60.92;101363.41;5068353;28;45596;-59
2022/11/05 10:17:58;;;;;;;;;3.00;1.00;;;;;13.21;60.26;101357.22;5059091;28;46147;-59
2022/11/05 10:20:37;;;;;;;;;3.00;3.00;;;;;13.24;61.24;101357.91;5062098;28;45331;-58
2022/11/05 10:23:18;;;;;;;;;3.00;3.00;;;;;13.29;60.76;101365.69;5057431;28;45260;-59
2022/11/05 10:25:47;;;;;;;;;3.00;1.33;;;;;13.36;60.79;101363.50;5065301;27;45707;-59
2022/11/05 10:28:19;;;;;;;;;4.33;1.33;;;;;13.41;60.97;101369.44;5059108;27;45341;-59
2022/11/05 10:30:50;;;;;;;;;3.00;3.00;;;;;13.47;60.97;101370.00;5070866;27;45525;-58
2022/11/05 10:33:26;;;;;;;;;7.00;4.00;;;;;13.47;60.40;101370.00;5077457;27;45456;-60
2022/11/05 10:35:56;;;;;;;;;8.00;3.67;;;;;13.50;60.45;101371.63;5075283;28;45493;-59
2022/11/05 10:38:22;;;;;;;;;2.67;2.00;;;;;13.48;60.87;101371.72;5040216;28;45619;-59
2022/11/05 10:40:59;;;;;;;;;3.00;3.00;;;;;13.54;60.86;101376.72;5061621;27;45516;-59
2022/11/05 10:43:39;;;;;;;;;2.00;2.00;;;;;13.48;60.10;101368.19;5055258;28;45260;-59
2022/11/05 10:46:40;;;;;;;;;2.33;2.33;;;;;13.59;60.51;101379.13;5047237;27;45551;-62
2022/11/05 10:49:17;;;;;;;;;3.00;3.00;;;;;13.64;60.14;101382.41;5057303;27;45498;-60
2022/11/05 10:51:45;;;;;;;;;3.00;3.00;;;;;13.64;59.87;101381.53;5060180;27;45572;-59
2022/11/05 10:54:20;;;;;;;;;2.67;1.67;;;;;13.66;60.16;101369.81;5061910;27;45437;-59
2022/11/05 10:56:49;;;;;;;;;4.00;2.00;;;;;13.68;60.30;101378.63;5066259;28;45518;-61
2022/11/05 10:59:27;;;;;;;;;1.67;1.00;;;;;13.65;59.93;101373.44;5054373;28;46823;-61
2022/11/05 11:02:23;;;;;;;;;1.00;1.00;;;;;13.68;60.24;101388.47;5062945;27;45369;-59
2022/11/05 11:04:54;;;;;;;;;4.00;2.00;;;;;13.73;60.06;101373.00;5038255;28;45437;-59
2022/11/05 11:07:23;;;;;;;;;1.67;1.67;;;;;13.77;60.19;101382.56;5041998;28;45703;-60
2022/11/05 11:09:50;;;;;;;;;2.33;2.33;;;;;13.83;60.57;101376.88;5062170;27;46327;-59
2022/11/05 11:12:23;;;;;;;;;2.67;2.00;;;;;13.85;60.29;101375.84;5071086;27;45544;-61
2022/11/05 11:15:10;;;;;;;;;3.00;2.00;;;;;13.89;60.03;101360.47;5059301;27;45410;-59
2022/11/05 11:17:36;;;;;;;;;4.00;1.00;;;;;13.86;60.46;101361.53;5070919;27;45516;-59
2022/11/05 11:20:22;;;;;;;;;3.00;3.00;;;;;13.90;59.98;101366.69;5074557;27;45547;-59
2022/11/05 11:23:01;;;;;;;;;4.00;2.00;;;;;13.93;60.30;101362.03;5066818;27;45381;-61
2022/11/05 11:25:31;;;;;;;;;2.00;2.00;;;;;13.96;59.96;101358.34;5042178;28;45599;-58
2022/11/05 11:28:03;;;;;;;;;2.33;2.33;;;;;14.02;60.34;101358.81;5059251;27;45517;-60
2022/11/05 11:30:28;;;;;;;;;5.00;4.00;;;;;14.04;59.46;101354.25;5054201;27;46181;-60
2022/11/05 11:33:03;;;;;;;;;3.00;1.33;;;;;14.06;59.84;101356.81;5064143;27;45610;-59
2022/11/05 11:35:29;;;;;;;;;5.00;3.67;;;;;14.03;60.37;101346.31;5061934;27;45783;-60
2022/11/05 11:37:59;;;;;;;;;5.33;2.00;;;;;14.14;60.03;101350.09;5057573;28;45631;-59
2022/11/05 11:40:31;;;;;;;;;4.00;3.00;;;;;14.22;60.47;101335.41;5074474;27;45569;-59
2022/11/05 11:43:02;;;;;;;;;2.00;2.00;;;;;14.20;60.12;101345.34;5056241;27;45301;-59
2022/11/05 11:45:44;;;;;;;;;4.00;3.00;;;;;14.15;60.32;101324.19;5060065;28;45472;-62
2022/11/05 11:48:16;;;;;;;;;6.67;2.00;;;;;14.30;60.21;101333.13;5038052;28;45341;-59
2022/11/05 11:50:44;;;;;;;;;2.00;2.00;;;;;14.40;59.60;101326.25;5062278;27;46187;-62
2022/11/05 11:53:18;;;;;;;;;6.33;3.00;;;;;14.47;59.83;101325.00;5069982;28;45439;-60
2022/11/05 11:56:14;;;;;;;;;3.67;2.33;;;;;14.52;59.85;101336.25;5078593;28;45300;-60
2022/11/05 11:58:53;;;;;;;;;2.33;2.33;;;;;14.57;59.52;101334.16;5075819;27;45170;-59
2022/11/05 12:01:40;;;;;;;;;4.00;4.00;;;;;14.56;59.45;101337.78;5067675;28;47327;-59
2022/11/05 12:04:23;;;;;;;;;2.67;1.33;;;;;14.59;58.62;101334.94;5055685;28;45527;-60
2022/11/05 12:06:59;;;;;;;;;4.67;3.00;;;;;14.57;59.19;101319.91;5061002;28;45479;-58
2022/11/05 12:09:42;;;;;;;;;6.67;4.00;;;;;14.63;58.47;101324.91;5067846;27;45504;-60
2022/11/05 12:12:12;;;;;;;;;7.00;2.00;;;;;14.59;58.37;101313.53;5056297;28;45463;-60
2022/11/05 12:15:02;;;;;;;;;2.67;1.00;;;;;14.53;58.44;101313.03;5076586;27;45299;-63
2022/11/05 12:17:30;;;;;;;;;4.00;2.33;;;;;14.53;58.73;101313.03;5075791;28;45453;-58
2022/11/05 12:20:14;;;;;;;;;4.00;1.67;;;;;14.51;58.69;101318.47;5052599;28;45539;-59
2022/11/05 12:23:11;;;;;;;;;1.67;1.67;;;;;14.52;59.25;101314.84;5039613;28;47043;-60